KRZL

Jasper County Airport

Rensselaer, Indiana, USA
METAR KRZL 180215Z AUTO 00000KT 10SM SCT050 BKN065 OVC110 21/17 A2999 RMK AO2
Observed Flight Rules
Aug-18 @ 02:15 UTC (16 minutes ago) Visual Flight Rules
Visibility Clouds
10 miles
  • Scattered at 5,000' AGL
  • Broken at 6,500' AGL
  • Overcast at 11,000' AGL
Temperatures Readings
Current 21°C / 70°F
Dewpoint 17°C / 63°F
Humidity 78%
Altimeter 29.99" Hg
Pressure 1016 hPa
Elevation 213
METAR KRZL 180215Z AUTO 00000KT 10SM SCT050 BKN065 OVC110 21/17 A2999 RMK AO2
Observed Flight Rules
Aug-18 @ 02:15 UTC
(16 minutes ago)
VFR
Clouds
  • Scattered at 5,000' AGL
  • Broken at 6,500' AGL
  • Overcast at 11,000' AGL
Temperature Dewpoint
21°C / 70°F 17°C / 63°F
Humidity Altimeter Pressure
78% 29.99" Hg 1016 hPa